createdAt,value
2022-08-19T00:00:45.252Z,977.50
2022-08-19T00:01:45.205Z,977.51
2022-08-19T00:02:50.003Z,977.44
2022-08-19T00:03:45.186Z,977.48
2022-08-19T00:04:45.206Z,977.45
2022-08-19T00:05:45.170Z,977.49
2022-08-19T00:06:45.203Z,977.45
2022-08-19T00:07:45.147Z,977.45
2022-08-19T00:08:45.141Z,977.40
2022-08-19T00:09:45.132Z,977.34
2022-08-19T00:10:45.119Z,977.38
2022-08-19T00:11:45.139Z,977.33
2022-08-19T00:12:46.905Z,977.36
2022-08-19T00:13:45.089Z,977.46
2022-08-19T00:14:45.076Z,977.36
2022-08-19T00:15:45.073Z,977.35
2022-08-19T00:16:45.063Z,977.30
2022-08-19T00:17:45.081Z,977.33
2022-08-19T00:18:45.043Z,977.28
2022-08-19T00:19:45.024Z,977.30
2022-08-19T00:20:45.020Z,977.25
2022-08-19T00:21:45.016Z,977.21
2022-08-19T00:22:45.035Z,977.22
2022-08-19T00:23:44.993Z,977.24
2022-08-19T00:24:50.891Z,977.22
2022-08-19T00:25:48.590Z,977.18
2022-08-19T00:26:44.967Z,977.17
2022-08-19T00:27:45.023Z,977.18
2022-08-19T00:28:44.943Z,977.10
2022-08-19T00:29:44.937Z,977.14
2022-08-19T00:30:44.931Z,977.15
2022-08-19T00:31:44.920Z,977.17
2022-08-19T00:32:44.905Z,977.15
2022-08-19T00:33:44.941Z,977.26
2022-08-19T00:34:44.887Z,977.22
2022-08-19T00:35:44.877Z,977.27
2022-08-19T00:36:44.881Z,977.30
2022-08-19T00:37:44.859Z,977.28
2022-08-19T00:38:44.894Z,977.24
2022-08-19T00:39:44.856Z,977.25
2022-08-19T00:40:44.833Z,977.23
2022-08-19T00:41:46.487Z,977.24
2022-08-19T00:42:44.805Z,977.29
2022-08-19T00:43:44.801Z,977.30
2022-08-19T00:44:44.805Z,977.29
2022-08-19T00:45:44.781Z,977.26
2022-08-19T00:46:44.772Z,977.25
2022-08-19T00:47:45.764Z,977.28
2022-08-19T00:48:44.755Z,977.26
2022-08-19T00:49:44.758Z,977.18
2022-08-19T00:50:51.890Z,977.21
2022-08-19T00:51:45.722Z,977.21
2022-08-19T00:52:44.711Z,977.16
2022-08-19T00:53:44.750Z,977.13
2022-08-19T00:54:44.697Z,977.15
2022-08-19T00:55:44.680Z,977.08
2022-08-19T00:56:44.672Z,977.12
2022-08-19T00:57:44.662Z,977.20
2022-08-19T00:58:44.684Z,977.15
2022-08-19T01:00:00.498Z,977.17
2022-08-19T01:00:45.635Z,977.11
2022-08-19T01:01:44.654Z,977.08
2022-08-19T01:02:44.614Z,977.15
2022-08-19T01:03:57.925Z,977.15
2022-08-19T01:04:45.613Z,977.08
2022-08-19T01:05:44.588Z,977.07
2022-08-19T01:06:44.572Z,977.04
2022-08-19T01:07:44.566Z,977.05
2022-08-19T01:08:44.558Z,977.06
2022-08-19T01:09:44.567Z,977.01
2022-08-19T01:10:44.539Z,977.01
2022-08-19T01:11:44.529Z,977.07
2022-08-19T01:12:44.524Z,977.01
2022-08-19T01:13:50.026Z,976.97
2022-08-19T01:14:45.545Z,976.93
2022-08-19T01:15:44.495Z,976.93
2022-08-19T01:16:44.482Z,976.93
2022-08-19T01:17:44.475Z,976.90
2022-08-19T01:18:44.469Z,976.88
2022-08-19T01:19:44.816Z,976.90
2022-08-19T01:20:44.447Z,976.91
2022-08-19T01:21:44.436Z,976.91
2022-08-19T01:22:44.421Z,976.93
2022-08-19T01:23:44.416Z,976.88
2022-08-19T01:24:49.574Z,976.83
2022-08-19T01:25:45.470Z,976.84
2022-08-19T01:26:44.387Z,976.91
2022-08-19T01:27:44.374Z,976.99
2022-08-19T01:28:44.366Z,976.88
2022-08-19T01:29:44.359Z,976.87
2022-08-19T01:30:44.610Z,976.97
2022-08-19T01:31:45.432Z,976.98
2022-08-19T01:32:44.441Z,977.02
2022-08-19T01:33:44.315Z,977.01
2022-08-19T01:34:44.302Z,977.05
2022-08-19T01:35:44.335Z,977.05
2022-08-19T01:36:44.286Z,977.06
2022-08-19T01:37:44.279Z,977.04
2022-08-19T01:38:44.644Z,977.13
2022-08-19T01:39:44.333Z,977.08
2022-08-19T01:40:44.277Z,977.12
2022-08-19T01:41:44.240Z,977.07
2022-08-19T01:42:44.226Z,977.08
2022-08-19T01:44:09.985Z,977.07
2022-08-19T01:44:45.207Z,977.07
2022-08-19T01:45:44.199Z,977.08
2022-08-19T01:46:44.203Z,977.09
2022-08-19T01:47:44.181Z,977.15
2022-08-19T01:48:45.170Z,977.09
2022-08-19T01:49:44.175Z,977.12
2022-08-19T01:50:44.165Z,977.11
2022-08-19T01:51:44.157Z,977.11
2022-08-19T01:52:44.136Z,977.15
2022-08-19T01:53:44.121Z,977.12
2022-08-19T01:54:44.112Z,977.12
2022-08-19T01:55:44.104Z,977.09
2022-08-19T01:56:44.113Z,977.10
2022-08-19T01:57:45.081Z,977.06
2022-08-19T01:58:44.071Z,977.01
2022-08-19T01:59:44.067Z,977.11
2022-08-19T02:00:44.055Z,977.13
2022-08-19T02:01:44.059Z,977.11
2022-08-19T02:02:44.297Z,977.08
2022-08-19T02:03:44.031Z,977.07
2022-08-19T02:04:44.013Z,977.08
2022-08-19T02:05:44.008Z,977.08
2022-08-19T02:06:43.999Z,977.04
2022-08-19T02:07:44.004Z,977.02
2022-08-19T02:08:43.979Z,977.02
2022-08-19T02:09:43.966Z,977.03
2022-08-19T02:10:43.959Z,977.01
2022-08-19T02:11:43.943Z,976.99
2022-08-19T02:12:43.981Z,977.03
2022-08-19T02:13:43.930Z,977.06
2022-08-19T02:14:43.916Z,977.06
2022-08-19T02:15:43.906Z,977.09
2022-08-19T02:16:43.889Z,977.02
2022-08-19T02:17:43.884Z,977.08
2022-08-19T02:18:43.892Z,976.98
2022-08-19T02:19:43.863Z,977.05
2022-08-19T02:20:43.856Z,976.98
2022-08-19T02:21:43.846Z,976.97
2022-08-19T02:22:43.838Z,976.90
2022-08-19T02:23:43.843Z,976.94
2022-08-19T02:24:43.818Z,976.81
2022-08-19T02:25:43.817Z,976.90
2022-08-19T02:26:43.801Z,976.85
2022-08-19T02:27:43.790Z,976.83
2022-08-19T02:28:43.817Z,976.87
2022-08-19T02:29:43.779Z,976.88
2022-08-19T02:30:43.759Z,976.87
2022-08-19T02:31:43.752Z,976.98
2022-08-19T02:32:44.814Z,976.90
2022-08-19T02:33:43.735Z,976.87
2022-08-19T02:34:43.727Z,976.87
2022-08-19T02:35:44.710Z,976.90
2022-08-19T02:36:43.697Z,976.95
2022-08-19T02:37:43.688Z,976.94
2022-08-19T02:38:47.029Z,976.90
2022-08-19T02:39:44.718Z,976.93
2022-08-19T02:40:43.657Z,976.95
2022-08-19T02:41:43.650Z,976.93
2022-08-19T02:42:43.642Z,977.01
2022-08-19T02:44:11.454Z,977.01
2022-08-19T02:44:44.633Z,976.99
2022-08-19T02:45:43.611Z,976.99
2022-08-19T02:46:43.600Z,976.97
2022-08-19T02:47:43.602Z,976.95
2022-08-19T02:48:43.577Z,976.96
2022-08-19T02:49:43.574Z,976.88
2022-08-19T02:50:53.348Z,976.89
2022-08-19T02:51:44.564Z,976.93
2022-08-19T02:52:43.546Z,976.90
2022-08-19T02:53:43.535Z,976.91
2022-08-19T02:54:43.524Z,976.89
2022-08-19T02:55:45.972Z,976.92
2022-08-19T02:56:43.505Z,976.98
2022-08-19T02:57:43.496Z,977.00
2022-08-19T02:58:43.494Z,976.99
2022-08-19T02:59:43.475Z,977.01
2022-08-19T03:00:43.496Z,977.01
2022-08-19T03:01:43.545Z,977.04
2022-08-19T03:02:43.448Z,977.00
2022-08-19T03:03:43.440Z,977.01
2022-08-19T03:04:43.428Z,977.03
2022-08-19T03:05:56.214Z,976.97
2022-08-19T03:06:44.409Z,977.03
2022-08-19T03:07:43.401Z,977.04
2022-08-19T03:08:43.389Z,977.05
2022-08-19T03:09:43.377Z,977.12
2022-08-19T03:10:43.366Z,977.05
2022-08-19T03:11:43.375Z,977.08
2022-08-19T03:12:43.349Z,977.07
2022-08-19T03:13:43.341Z,977.12
2022-08-19T03:14:43.328Z,977.08
2022-08-19T03:15:43.315Z,977.12
2022-08-19T03:16:43.318Z,977.12
2022-08-19T03:17:43.297Z,977.14
2022-08-19T03:18:43.283Z,977.06
2022-08-19T03:19:43.277Z,977.15
2022-08-19T03:20:43.267Z,977.20
2022-08-19T03:21:43.275Z,977.18
2022-08-19T03:22:43.244Z,977.20
2022-08-19T03:23:43.235Z,977.20
2022-08-19T03:24:43.222Z,977.20
2022-08-19T03:25:43.219Z,977.20
2022-08-19T03:26:43.248Z,977.19
2022-08-19T03:27:43.195Z,977.24
2022-08-19T03:28:43.201Z,977.19
2022-08-19T03:29:44.201Z,977.16
2022-08-19T03:30:43.660Z,977.24
2022-08-19T03:31:51.088Z,977.19
2022-08-19T03:32:45.314Z,977.27
2022-08-19T03:33:43.137Z,977.20
2022-08-19T03:34:43.127Z,977.27
2022-08-19T03:35:43.119Z,977.31
2022-08-19T03:36:43.108Z,977.35
2022-08-19T03:37:43.125Z,977.36
2022-08-19T03:38:43.158Z,977.34
2022-08-19T03:39:43.134Z,977.36
2022-08-19T03:40:43.073Z,977.41
2022-08-19T03:41:44.615Z,977.42
2022-08-19T03:42:56.774Z,977.41
2022-08-19T03:43:44.048Z,977.45
2022-08-19T03:44:43.035Z,977.50
2022-08-19T03:45:43.025Z,977.47
2022-08-19T03:46:44.615Z,977.48
2022-08-19T03:47:43.024Z,977.47
2022-08-19T03:50:08.870Z,977.48
2022-08-19T03:51:08.881Z,977.51
2022-08-19T03:52:08.878Z,977.54
2022-08-19T03:53:08.899Z,977.46
2022-08-19T03:54:08.866Z,977.46
2022-08-19T03:55:08.839Z,977.49
2022-08-19T03:56:08.841Z,977.44
2022-08-19T03:57:08.828Z,977.42
2022-08-19T03:58:08.820Z,977.44
2022-08-19T03:59:09.949Z,977.33
2022-08-19T04:00:13.421Z,977.32
2022-08-19T04:01:09.950Z,977.34
2022-08-19T04:02:09.941Z,977.35
2022-08-19T04:03:09.900Z,977.37
2022-08-19T04:04:09.908Z,977.41
2022-08-19T04:05:09.884Z,977.45
2022-08-19T04:06:09.870Z,977.32
2022-08-19T04:07:09.863Z,977.47
2022-08-19T04:08:13.749Z,977.48
2022-08-19T04:09:10.882Z,977.38
2022-08-19T04:10:10.698Z,977.41
2022-08-19T04:11:09.820Z,977.33
2022-08-19T04:12:09.813Z,977.39
2022-08-19T04:13:09.805Z,977.45
2022-08-19T04:14:09.809Z,977.51
2022-08-19T04:15:09.807Z,977.44
2022-08-19T04:16:09.777Z,977.47
2022-08-19T04:17:09.769Z,977.58
2022-08-19T04:18:09.760Z,977.53
2022-08-19T04:19:09.768Z,977.53
2022-08-19T04:20:09.754Z,977.57
2022-08-19T04:21:09.733Z,977.62
2022-08-19T04:22:09.763Z,977.61
2022-08-19T04:23:09.708Z,977.67
2022-08-19T04:24:09.714Z,977.63
2022-08-19T04:25:09.708Z,977.61
2022-08-19T04:26:09.678Z,977.60
2022-08-19T04:27:10.671Z,977.58
2022-08-19T04:28:09.663Z,977.56
2022-08-19T04:29:12.576Z,977.53
2022-08-19T04:30:10.660Z,977.47
2022-08-19T04:31:09.653Z,977.48
2022-08-19T04:32:09.965Z,977.47
2022-08-19T04:33:10.615Z,977.53
2022-08-19T04:34:09.612Z,977.44
2022-08-19T04:35:16.920Z,977.48
2022-08-19T04:36:10.605Z,977.44
2022-08-19T04:37:09.572Z,977.44
2022-08-19T04:38:09.565Z,977.46
2022-08-19T04:39:09.570Z,977.47
2022-08-19T04:40:09.728Z,977.60
2022-08-19T04:41:09.539Z,977.50
2022-08-19T04:42:09.528Z,977.52
2022-08-19T04:43:09.517Z,977.58
2022-08-19T04:44:09.524Z,977.58
2022-08-19T04:45:09.590Z,977.52
2022-08-19T04:46:09.491Z,977.48
2022-08-19T04:47:11.277Z,977.48
2022-08-19T04:48:27.289Z,977.46
2022-08-19T04:49:13.701Z,977.47
2022-08-19T04:50:09.456Z,977.46
2022-08-19T04:51:09.441Z,977.45
2022-08-19T04:52:09.466Z,977.38
2022-08-19T04:53:09.425Z,977.38
2022-08-19T04:54:09.420Z,977.49
2022-08-19T04:55:09.432Z,977.44
2022-08-19T04:56:09.404Z,977.39
2022-08-19T04:57:09.511Z,977.40
2022-08-19T04:58:09.380Z,977.34
2022-08-19T04:59:09.374Z,977.41
2022-08-19T05:00:09.383Z,977.40
2022-08-19T05:01:09.414Z,977.39
2022-08-19T05:02:09.361Z,977.41
2022-08-19T05:03:09.332Z,977.45
2022-08-19T05:04:09.328Z,977.44
2022-08-19T05:05:09.336Z,977.52
2022-08-19T05:06:09.305Z,977.46
2022-08-19T05:07:09.295Z,977.54
2022-08-19T05:08:09.290Z,977.53
2022-08-19T05:09:09.278Z,977.59
2022-08-19T05:10:09.280Z,977.55
2022-08-19T05:11:09.260Z,977.66
2022-08-19T05:12:09.249Z,977.56
2022-08-19T05:13:09.243Z,977.56
2022-08-19T05:14:09.248Z,977.56
2022-08-19T05:15:09.246Z,977.56
2022-08-19T05:16:09.203Z,977.53
2022-08-19T05:17:26.662Z,977.59
2022-08-19T05:18:11.187Z,977.63
2022-08-19T05:19:09.177Z,977.67
2022-08-19T05:20:09.230Z,977.63
2022-08-19T05:21:09.162Z,977.59
2022-08-19T05:22:09.151Z,977.57
2022-08-19T05:23:09.141Z,977.57
2022-08-19T05:24:10.133Z,977.60
2022-08-19T05:25:12.918Z,977.59
2022-08-19T05:26:10.150Z,977.60
2022-08-19T05:27:09.102Z,977.61
2022-08-19T05:28:09.087Z,977.58
2022-08-19T05:29:09.081Z,977.60
2022-08-19T05:30:09.107Z,977.67
2022-08-19T05:31:09.077Z,977.58
2022-08-19T05:32:09.052Z,977.58
2022-08-19T05:33:09.042Z,977.62
2022-08-19T05:34:18.457Z,977.65
2022-08-19T05:35:10.041Z,977.62
2022-08-19T05:36:09.034Z,977.60
2022-08-19T05:37:09.006Z,977.59
2022-08-19T05:38:08.998Z,977.57
2022-08-19T05:39:08.989Z,977.49
2022-08-19T05:40:09.183Z,977.57
2022-08-19T05:41:08.997Z,977.57
2022-08-19T05:42:08.958Z,977.52
2022-08-19T05:43:08.946Z,977.58
2022-08-19T05:44:08.939Z,977.49
2022-08-19T05:45:08.928Z,977.52
2022-08-19T05:46:08.948Z,977.52
2022-08-19T05:47:08.909Z,977.51
2022-08-19T05:48:08.898Z,977.54
2022-08-19T05:49:08.891Z,977.50
2022-08-19T05:50:08.880Z,977.54
2022-08-19T05:51:08.897Z,977.54
2022-08-19T05:52:08.861Z,977.62
2022-08-19T05:53:08.854Z,977.51
2022-08-19T05:54:08.842Z,977.63
2022-08-19T05:55:08.839Z,977.64
2022-08-19T05:56:08.839Z,977.60
2022-08-19T05:57:08.814Z,977.53
2022-08-19T05:58:08.829Z,977.47
2022-08-19T05:59:08.795Z,977.57
2022-08-19T06:00:08.783Z,977.50
2022-08-19T06:01:08.822Z,977.59
2022-08-19T06:02:08.802Z,977.59
2022-08-19T06:03:12.525Z,977.56
2022-08-19T06:04:08.749Z,977.47
2022-08-19T06:05:08.734Z,977.49
2022-08-19T06:06:08.773Z,977.53
2022-08-19T06:07:12.172Z,977.52
2022-08-19T06:08:08.704Z,977.48
2022-08-19T06:09:08.703Z,977.44
2022-08-19T06:10:08.697Z,977.46
2022-08-19T06:11:08.682Z,977.40
2022-08-19T06:12:08.691Z,977.46
2022-08-19T06:13:08.666Z,977.47
2022-08-19T06:14:09.650Z,977.43
2022-08-19T06:15:09.645Z,977.49
2022-08-19T06:16:08.635Z,977.41
2022-08-19T06:17:08.640Z,977.42
2022-08-19T06:18:08.617Z,977.47
2022-08-19T06:19:08.608Z,977.37
2022-08-19T06:20:08.606Z,977.41
2022-08-19T06:21:08.607Z,977.45
2022-08-19T06:22:08.648Z,977.50
2022-08-19T06:23:08.570Z,977.50
2022-08-19T06:24:08.559Z,977.52
2022-08-19T06:25:08.552Z,977.49
2022-08-19T06:26:08.544Z,977.38
2022-08-19T06:27:08.551Z,977.49
2022-08-19T06:28:15.934Z,977.50
2022-08-19T06:29:10.511Z,977.48
2022-08-19T06:30:09.499Z,977.52
2022-08-19T06:31:08.494Z,977.54
2022-08-19T06:32:08.512Z,977.64
2022-08-19T06:33:08.472Z,977.58
2022-08-19T06:34:08.477Z,977.68
2022-08-19T06:35:08.465Z,977.65
2022-08-19T06:36:08.443Z,977.78
2022-08-19T06:37:08.476Z,977.67
2022-08-19T06:38:08.433Z,977.71
2022-08-19T06:39:08.422Z,977.67
2022-08-19T06:40:08.453Z,977.64
2022-08-19T06:41:08.442Z,977.68
2022-08-19T06:42:10.310Z,977.71
2022-08-19T06:43:09.369Z,977.70
2022-08-19T06:44:08.390Z,977.78
2022-08-19T06:45:09.344Z,977.81
2022-08-19T06:46:08.346Z,977.81
2022-08-19T06:47:09.644Z,977.84
2022-08-19T06:48:09.342Z,977.80
2022-08-19T06:49:08.342Z,977.88
2022-08-19T06:50:08.318Z,977.87
2022-08-19T06:51:08.603Z,977.86
2022-08-19T06:52:08.290Z,977.93
2022-08-19T06:53:08.308Z,977.94
2022-08-19T06:54:08.417Z,977.98
2022-08-19T06:55:09.263Z,977.98
2022-08-19T06:56:08.252Z,978.01
2022-08-19T06:57:08.243Z,978.02
2022-08-19T06:58:08.272Z,978.01
2022-08-19T06:59:08.221Z,978.17
2022-08-19T07:00:12.244Z,978.20
2022-08-19T07:01:09.210Z,978.27
2022-08-19T07:02:08.234Z,978.27
2022-08-19T07:03:08.918Z,978.33
2022-08-19T07:04:09.171Z,978.36
2022-08-19T07:05:08.165Z,978.35
2022-08-19T07:06:09.807Z,978.36
2022-08-19T07:07:19.707Z,978.43
2022-08-19T07:08:09.160Z,978.45
2022-08-19T07:09:08.125Z,978.40
2022-08-19T07:10:08.115Z,978.43
2022-08-19T07:11:09.370Z,978.41
2022-08-19T07:12:08.095Z,978.39
2022-08-19T07:13:08.122Z,978.43
2022-08-19T07:14:19.068Z,978.43
2022-08-19T07:15:09.066Z,978.44
2022-08-19T07:16:08.067Z,978.44
2022-08-19T07:17:08.050Z,978.41
2022-08-19T07:18:08.069Z,978.39
2022-08-19T07:19:15.544Z,978.44
2022-08-19T07:20:09.462Z,978.37
2022-08-19T07:21:09.378Z,978.38
2022-08-19T07:22:08.001Z,978.45
2022-08-19T07:23:09.036Z,978.41
2022-08-19T07:24:08.007Z,978.39
2022-08-19T07:25:08.005Z,978.47
2022-08-19T07:26:07.965Z,978.48
2022-08-19T07:27:10.617Z,978.52
2022-08-19T07:28:08.941Z,978.49
2022-08-19T07:29:08.948Z,978.49
2022-08-19T07:30:07.922Z,978.53
2022-08-19T07:31:07.912Z,978.49
2022-08-19T07:32:07.927Z,978.49
2022-08-19T07:33:08.924Z,978.49
2022-08-19T07:34:07.897Z,978.48
2022-08-19T07:35:07.894Z,978.49
2022-08-19T07:36:07.865Z,978.56
2022-08-19T07:37:07.858Z,978.55
2022-08-19T07:38:07.853Z,978.58
2022-08-19T07:39:07.857Z,978.62
2022-08-19T07:40:07.948Z,978.61
2022-08-19T07:41:07.820Z,978.50
2022-08-19T07:42:07.871Z,978.54
2022-08-19T07:43:10.191Z,978.62
2022-08-19T07:44:08.819Z,978.57
2022-08-19T07:45:07.785Z,978.51
2022-08-19T07:47:07.760Z,978.43
2022-08-19T07:48:08.768Z,978.43
2022-08-19T07:49:07.775Z,978.41
2022-08-19T07:50:08.658Z,978.40
2022-08-19T07:51:07.723Z,978.39
2022-08-19T07:52:07.714Z,978.36
2022-08-19T07:53:07.707Z,978.40
2022-08-19T07:54:07.694Z,978.31
2022-08-19T07:55:07.705Z,978.36
2022-08-19T07:56:08.683Z,978.29
2022-08-19T07:57:07.699Z,978.23
2022-08-19T07:58:07.725Z,978.29
2022-08-19T07:59:07.735Z,978.23
2022-08-19T08:00:07.719Z,978.31
2022-08-19T08:01:07.632Z,978.34
2022-08-19T08:02:07.673Z,978.34
2022-08-19T08:03:07.619Z,978.34
2022-08-19T08:04:07.608Z,978.27
2022-08-19T08:05:07.625Z,978.37
2022-08-19T08:06:07.616Z,978.43
2022-08-19T08:07:07.575Z,978.41
2022-08-19T08:08:07.568Z,978.38
2022-08-19T08:09:07.575Z,978.41
2022-08-19T08:10:12.618Z,978.39
2022-08-19T08:11:08.538Z,978.48
2022-08-19T08:12:32.972Z,978.46
2022-08-19T08:13:11.035Z,978.34
2022-08-19T08:14:07.509Z,978.37
2022-08-19T08:15:08.570Z,978.41
2022-08-19T08:16:07.494Z,978.39
2022-08-19T08:17:10.863Z,978.38
2022-08-19T08:18:07.479Z,978.34
2022-08-19T08:19:14.755Z,978.37
2022-08-19T08:20:08.518Z,978.34
2022-08-19T08:21:07.444Z,978.35
2022-08-19T08:22:07.437Z,978.38
2022-08-19T08:23:07.436Z,978.38
2022-08-19T08:24:07.423Z,978.40
2022-08-19T08:25:07.408Z,978.36
2022-08-19T08:26:07.416Z,978.44
2022-08-19T08:27:11.088Z,978.43
2022-08-19T08:28:07.379Z,978.46
2022-08-19T08:29:12.261Z,978.48
2022-08-19T08:30:08.357Z,978.49
2022-08-19T08:31:09.418Z,978.49
2022-08-19T08:32:14.831Z,978.47
2022-08-19T08:33:08.380Z,978.47
2022-08-19T08:34:07.320Z,978.46
2022-08-19T08:35:07.309Z,978.43
2022-08-19T08:36:07.315Z,978.47
2022-08-19T08:37:07.289Z,978.50
2022-08-19T08:38:07.301Z,978.47
2022-08-19T08:39:07.267Z,978.57
2022-08-19T08:40:08.996Z,978.67
2022-08-19T08:41:08.276Z,978.66
2022-08-19T08:42:09.903Z,978.64
2022-08-19T08:43:07.264Z,978.66
2022-08-19T08:44:07.218Z,978.72
2022-08-19T08:45:07.250Z,978.74
2022-08-19T08:46:07.562Z,978.82
2022-08-19T08:47:07.922Z,978.83
2022-08-19T08:48:07.182Z,978.80
2022-08-19T08:49:08.172Z,978.80
2022-08-19T08:50:07.158Z,978.87
2022-08-19T08:51:07.150Z,978.81
2022-08-19T08:52:07.158Z,978.85
2022-08-19T08:53:07.136Z,978.83
2022-08-19T08:54:07.124Z,978.74
2022-08-19T08:55:10.096Z,978.77
2022-08-19T08:56:08.103Z,978.78
2022-08-19T08:57:07.114Z,978.81
2022-08-19T08:58:07.092Z,978.74
2022-08-19T08:59:07.080Z,978.79
2022-08-19T09:00:07.068Z,978.84
2022-08-19T09:01:08.105Z,978.79
2022-08-19T09:02:07.062Z,978.87
2022-08-19T09:03:07.037Z,978.90
2022-08-19T09:04:07.043Z,978.87
2022-08-19T09:05:07.020Z,978.93
2022-08-19T09:06:12.087Z,978.88
2022-08-19T09:07:18.195Z,978.87
2022-08-19T09:08:07.986Z,978.88
2022-08-19T09:09:12.227Z,978.88
2022-08-19T09:10:07.973Z,978.84
2022-08-19T09:11:06.961Z,978.88
2022-08-19T09:12:06.990Z,978.83
2022-08-19T09:13:09.237Z,978.84
2022-08-19T09:14:06.934Z,978.90
2022-08-19T09:15:06.930Z,978.82
2022-08-19T09:16:06.916Z,978.81
2022-08-19T09:17:06.907Z,978.82
2022-08-19T09:18:07.048Z,978.83
2022-08-19T09:19:06.887Z,978.81
2022-08-19T09:20:09.176Z,978.88
2022-08-19T09:21:06.867Z,978.83
2022-08-19T09:22:06.862Z,978.85
2022-08-19T09:23:06.860Z,978.89
2022-08-19T09:24:06.840Z,978.88
2022-08-19T09:25:06.831Z,978.78
2022-08-19T09:26:06.821Z,978.86
2022-08-19T09:27:08.411Z,978.76
2022-08-19T09:28:15.077Z,978.83
2022-08-19T09:29:07.787Z,978.82
2022-08-19T09:30:06.790Z,978.81
2022-08-19T09:31:06.779Z,978.76
2022-08-19T09:32:06.761Z,978.89
2022-08-19T09:33:07.769Z,978.84
2022-08-19T09:34:06.741Z,978.82
2022-08-19T09:35:08.898Z,978.86
2022-08-19T09:36:08.694Z,978.85
2022-08-19T09:37:06.708Z,978.80
2022-08-19T09:38:06.743Z,978.81
2022-08-19T09:39:16.181Z,978.77
2022-08-19T09:40:07.744Z,978.75
2022-08-19T09:41:06.689Z,978.79
2022-08-19T09:42:06.665Z,978.73
2022-08-19T09:43:10.064Z,978.78
2022-08-19T09:44:07.645Z,978.76
2022-08-19T09:45:10.212Z,978.76
2022-08-19T09:46:06.627Z,978.71
2022-08-19T09:47:06.617Z,978.74
2022-08-19T09:48:06.608Z,978.75
2022-08-19T09:49:06.952Z,978.79
2022-08-19T09:50:06.668Z,978.85
2022-08-19T09:51:06.580Z,978.86
2022-08-19T09:52:06.576Z,978.84
2022-08-19T09:53:06.862Z,978.84
2022-08-19T09:54:06.569Z,978.82
2022-08-19T09:55:07.212Z,978.80
2022-08-19T09:56:06.533Z,978.76
2022-08-19T09:57:07.666Z,978.83
2022-08-19T09:58:06.516Z,978.82
2022-08-19T09:59:06.528Z,978.76
2022-08-19T10:00:06.516Z,978.78
2022-08-19T10:01:06.560Z,978.81
2022-08-19T10:02:11.029Z,978.82
2022-08-19T10:03:07.205Z,978.83
2022-08-19T10:04:14.694Z,978.81
2022-08-19T10:05:08.456Z,978.83
2022-08-19T10:06:15.112Z,978.76
2022-08-19T10:07:07.512Z,978.82
2022-08-19T10:08:06.422Z,978.80
2022-08-19T10:09:09.025Z,978.84
2022-08-19T10:10:06.402Z,978.86
2022-08-19T10:11:28.747Z,978.75
2022-08-19T10:12:11.263Z,978.83
2022-08-19T10:13:06.369Z,978.86
2022-08-19T10:14:06.360Z,978.88
2022-08-19T10:15:06.383Z,978.87
2022-08-19T10:16:06.345Z,978.79
2022-08-19T10:17:19.258Z,978.81
2022-08-19T10:18:07.348Z,978.79
2022-08-19T10:19:06.317Z,978.77
2022-08-19T10:20:06.326Z,978.78
2022-08-19T10:21:06.299Z,978.70
2022-08-19T10:22:06.296Z,978.73
2022-08-19T10:23:06.282Z,978.66
2022-08-19T10:24:06.271Z,978.66
2022-08-19T10:25:06.275Z,978.66
2022-08-19T10:26:06.285Z,978.69
2022-08-19T10:27:06.246Z,978.69
2022-08-19T10:28:06.233Z,978.74
2022-08-19T10:29:06.225Z,978.73
2022-08-19T10:30:09.891Z,978.66
2022-08-19T10:31:06.201Z,978.60
2022-08-19T10:32:09.456Z,978.60
2022-08-19T10:33:10.853Z,978.61
2022-08-19T10:34:10.004Z,978.55
2022-08-19T10:35:06.246Z,978.52
2022-08-19T10:36:06.169Z,978.59
2022-08-19T10:37:06.144Z,978.61
2022-08-19T10:38:06.289Z,978.61
2022-08-19T10:39:06.124Z,978.59
2022-08-19T10:40:06.200Z,978.47
2022-08-19T10:41:06.106Z,978.61
2022-08-19T10:42:06.099Z,978.61
2022-08-19T10:43:06.093Z,978.57
2022-08-19T10:44:06.080Z,978.53
2022-08-19T10:45:06.108Z,978.51
2022-08-19T10:46:06.058Z,978.46
2022-08-19T10:47:17.596Z,978.49
2022-08-19T10:48:07.043Z,978.48
2022-08-19T10:49:07.033Z,978.49
2022-08-19T10:50:06.052Z,978.45
2022-08-19T10:51:06.014Z,978.44
2022-08-19T10:52:06.006Z,978.41
2022-08-19T10:53:08.112Z,978.42
2022-08-19T10:54:06.883Z,978.38
2022-08-19T10:55:08.675Z,978.45
2022-08-19T10:56:05.964Z,978.47
2022-08-19T10:57:05.953Z,978.41
2022-08-19T10:58:06.206Z,978.46
2022-08-19T10:59:05.937Z,978.43
2022-08-19T11:00:05.928Z,978.49
2022-08-19T11:01:06.000Z,978.45
2022-08-19T11:02:05.913Z,978.44
2022-08-19T11:03:05.898Z,978.43
2022-08-19T11:04:05.896Z,978.43
2022-08-19T11:05:12.726Z,978.38
2022-08-19T11:06:06.885Z,978.43
2022-08-19T11:07:05.862Z,978.41
2022-08-19T11:08:22.634Z,978.39
2022-08-19T11:09:06.842Z,978.34
2022-08-19T11:10:08.333Z,978.23
2022-08-19T11:11:05.839Z,978.16
2022-08-19T11:12:05.822Z,978.18
2022-08-19T11:13:05.805Z,978.13
2022-08-19T11:14:05.801Z,978.13
2022-08-19T11:15:05.786Z,978.18
2022-08-19T11:16:07.831Z,978.19
2022-08-19T11:17:06.767Z,978.15
2022-08-19T11:18:05.761Z,978.10
2022-08-19T11:19:06.748Z,978.24
2022-08-19T11:20:06.676Z,978.19
2022-08-19T11:21:05.760Z,978.17
2022-08-19T11:22:05.723Z,978.09
2022-08-19T11:23:05.718Z,978.06
2022-08-19T11:24:05.708Z,978.06
2022-08-19T11:25:05.701Z,978.07
2022-08-19T11:26:05.687Z,978.11
2022-08-19T11:27:05.692Z,978.01
2022-08-19T11:28:05.678Z,978.03
2022-08-19T11:29:05.661Z,977.99
2022-08-19T11:30:07.932Z,977.95
2022-08-19T11:31:05.651Z,978.02
2022-08-19T11:32:05.647Z,977.96
2022-08-19T11:33:05.623Z,977.94
2022-08-19T11:34:05.624Z,978.06
2022-08-19T11:35:05.604Z,977.99
2022-08-19T11:36:05.596Z,977.94
2022-08-19T11:37:05.607Z,977.96
2022-08-19T11:38:09.715Z,978.02
2022-08-19T11:39:06.571Z,977.98
2022-08-19T11:40:05.674Z,977.95
2022-08-19T11:41:05.551Z,977.97
2022-08-19T11:42:05.584Z,977.91
2022-08-19T11:43:05.551Z,977.91
2022-08-19T11:44:05.532Z,977.96
2022-08-19T11:45:05.513Z,977.86
2022-08-19T11:46:05.508Z,977.82
2022-08-19T11:47:08.842Z,977.80
2022-08-19T11:48:05.487Z,977.87
2022-08-19T11:49:05.473Z,977.88
2022-08-19T11:50:05.469Z,977.89
2022-08-19T11:51:05.451Z,977.83
2022-08-19T11:52:05.443Z,977.84
2022-08-19T11:53:05.803Z,977.84
2022-08-19T11:54:05.427Z,977.94
2022-08-19T11:55:05.418Z,977.81
2022-08-19T11:56:05.400Z,977.80
2022-08-19T11:57:05.398Z,977.83
2022-08-19T11:58:05.411Z,977.80
2022-08-19T11:59:05.381Z,977.83
2022-08-19T12:00:05.365Z,977.80
2022-08-19T12:01:05.369Z,977.87
2022-08-19T12:02:05.355Z,977.91
2022-08-19T12:03:05.383Z,977.74
2022-08-19T12:04:05.489Z,977.93
2022-08-19T12:05:09.032Z,977.96
2022-08-19T12:06:06.325Z,977.94
2022-08-19T12:07:05.308Z,977.94
2022-08-19T12:08:05.335Z,977.93
2022-08-19T12:09:05.286Z,977.95
2022-08-19T12:10:05.280Z,977.99
2022-08-19T12:11:05.265Z,977.96
2022-08-19T12:12:05.258Z,977.89
2022-08-19T12:13:05.255Z,977.83
2022-08-19T12:14:05.253Z,977.82
2022-08-19T12:15:05.229Z,977.76
2022-08-19T12:16:05.222Z,977.74
2022-08-19T12:17:05.212Z,977.76
2022-08-19T12:18:05.208Z,977.71
2022-08-19T12:19:05.307Z,977.84
2022-08-19T12:20:05.189Z,977.77
2022-08-19T12:21:05.177Z,977.69
2022-08-19T12:22:05.167Z,977.78
2022-08-19T12:23:05.158Z,977.66
2022-08-19T12:24:05.248Z,977.65
2022-08-19T12:25:05.136Z,977.61
2022-08-19T12:26:05.130Z,977.70
2022-08-19T12:27:05.133Z,977.69
2022-08-19T12:28:05.137Z,977.66
2022-08-19T12:29:05.131Z,977.74
2022-08-19T12:30:05.093Z,977.62
2022-08-19T12:31:05.086Z,977.71